Time;durP1;ratioP1;P1;durP2;ratioP2;P2;SDS_P1;SDS_P2;PMS_P1;PMS_P2;Temp;Humidity;BMP_temperature;BMP_pressure;BME280_temperature;BME280_humidity;BME280_pressure;Samples;Min_cycle;Max_cycle;Signal;HPM_P1;HPM_P2
2022/08/10 00:00:24;;;;;;;4.63;1.60;;;21.50;68.70;;;;;;5001173;28;20942;-81
2022/08/10 00:02:58;;;;;;;6.33;2.10;;;21.40;69.00;;;;;;4983884;28;20195;-81
2022/08/10 00:05:24;;;;;;;3.00;1.50;;;21.40;69.00;;;;;;4985860;28;20451;-81
2022/08/10 00:07:50;;;;;;;1.90;1.80;;;21.30;69.40;;;;;;4984404;28;20431;-81
2022/08/10 00:10:17;;;;;;;1.73;1.63;;;21.30;69.60;;;;;;5000139;28;20444;-80
2022/08/10 00:12:44;;;;;;;2.17;1.30;;;21.30;69.90;;;;;;4984519;28;20192;-81
2022/08/10 00:15:13;;;;;;;2.20;1.40;;;21.20;69.80;;;;;;4999860;28;20438;-81
2022/08/10 00:17:39;;;;;;;1.60;1.50;;;21.20;69.90;;;;;;4997891;28;20461;-82
2022/08/10 00:20:06;;;;;;;6.70;1.73;;;21.10;70.00;;;;;;5000455;28;20467;-81
2022/08/10 00:22:32;;;;;;;4.70;1.57;;;21.10;70.20;;;;;;4983449;28;20807;-81
2022/08/10 00:24:57;;;;;;;2.00;1.80;;;21.10;70.70;;;;;;4980898;28;20431;-81
2022/08/10 00:27:24;;;;;;;1.83;1.43;;;21.00;70.80;;;;;;4997222;28;20209;-80
2022/08/10 00:29:50;;;;;;;3.23;1.60;;;20.90;70.90;;;;;;5016411;28;20454;-81
2022/08/10 00:32:16;;;;;;;1.83;1.73;;;20.90;71.40;;;;;;4996138;28;20531;-80
2022/08/10 00:34:42;;;;;;;4.30;2.13;;;20.90;71.20;;;;;;4995648;28;20417;-81
2022/08/10 00:37:08;;;;;;;1.60;1.50;;;20.90;71.90;;;;;;4995027;28;20756;-81
2022/08/10 00:39:34;;;;;;;1.80;1.70;;;20.80;71.70;;;;;;4978289;28;20228;-82
2022/08/10 00:41:59;;;;;;;2.70;2.30;;;20.80;72.40;;;;;;4994663;28;20180;-82
2022/08/10 00:44:25;;;;;;;3.20;1.80;;;20.70;72.80;;;;;;4994922;28;20292;-82
2022/08/10 00:46:51;;;;;;;1.97;1.77;;;20.60;73.50;;;;;;4978124;28;20186;-81
2022/08/10 00:49:16;;;;;;;1.97;1.83;;;20.50;74.30;;;;;;4994135;28;20302;-80
2022/08/10 00:51:42;;;;;;;3.73;1.87;;;20.50;74.20;;;;;;4995630;28;20654;-81
2022/08/10 00:54:08;;;;;;;4.53;1.80;;;20.50;74.80;;;;;;4976073;28;20203;-81
2022/08/10 00:56:36;;;;;;;3.30;2.07;;;20.40;74.50;;;;;;4992057;28;20189;-81
2022/08/10 00:59:01;;;;;;;3.20;1.70;;;20.50;74.80;;;;;;4976202;28;20507;-81
2022/08/10 01:01:27;;;;;;;1.43;1.33;;;20.50;75.40;;;;;;4976103;28;20945;-79
2022/08/10 01:03:53;;;;;;;4.90;1.87;;;20.60;76.50;;;;;;4975824;28;20672;-79
2022/08/10 01:06:52;;;;;;;4.07;2.20;;;20.60;75.50;;;;;;5010463;28;20224;-79
2022/08/10 01:09:17;;;;;;;3.27;1.70;;;20.50;76.00;;;;;;4992913;28;20216;-79
2022/08/10 01:11:51;;;;;;;2.37;1.60;;;20.50;76.40;;;;;;5009494;28;20780;-80
2022/08/10 01:14:33;;;;;;;8.10;2.17;;;20.60;76.50;;;;;;4991835;28;20263;-80
2022/08/10 01:17:12;;;;;;;2.90;1.70;;;20.50;76.20;;;;;;4991873;28;20436;-80
2022/08/10 01:20:00;;;;;;;1.83;1.43;;;20.50;76.80;;;;;;4975335;28;20486;-79
2022/08/10 01:22:58;;;;;;;3.17;1.80;;;20.50;77.00;;;;;;5009155;28;20416;-79
2022/08/10 01:25:55;;;;;;;5.57;2.10;;;20.50;77.20;;;;;;5008838;28;20412;-79
2022/08/10 01:28:36;;;;;;;3.13;1.73;;;20.40;77.20;;;;;;4992186;28;20880;-78
2022/08/10 01:31:03;;;;;;;1.70;1.60;;;20.30;78.00;;;;;;5008602;28;20439;-78
2022/08/10 01:33:36;;;;;;;3.07;1.70;;;20.30;78.40;;;;;;4991173;28;20439;-78
2022/08/10 01:36:15;;;;;;;12.23;2.03;;;20.30;78.10;;;;;;4990918;28;20431;-78
2022/08/10 01:38:44;;;;;;;3.70;2.07;;;20.20;78.70;;;;;;5008677;28;20842;-79
2022/08/10 01:41:14;;;;;;;2.73;2.00;;;20.20;79.40;;;;;;4990341;28;20455;-78
2022/08/10 01:43:45;;;;;;;2.53;1.60;;;20.20;79.70;;;;;;5008424;28;20474;-77
2022/08/10 01:46:13;;;;;;;3.00;1.70;;;20.20;80.60;;;;;;5008643;28;20570;-79
2022/08/10 01:48:46;;;;;;;2.10;1.73;;;20.30;80.20;;;;;;5008289;28;21014;-78
2022/08/10 01:51:22;;;;;;;2.67;2.47;;;20.20;80.40;;;;;;5008476;28;20436;-78
2022/08/10 01:53:52;;;;;;;2.30;2.00;;;20.10;80.40;;;;;;4990751;28;20441;-78
2022/08/10 01:56:21;;;;;;;2.23;1.70;;;20.10;81.60;;;;;;5008394;28;20766;-77
2022/08/10 01:58:54;;;;;;;2.23;1.80;;;20.00;80.90;;;;;;4992349;28;20475;-78
2022/08/10 02:01:24;;;;;;;2.60;2.10;;;20.10;82.40;;;;;;5011949;28;20412;-78
2022/08/10 02:03:53;;;;;;;2.27;1.67;;;20.10;82.60;;;;;;5011772;28;20423;-78
2022/08/10 02:06:22;;;;;;;2.30;1.70;;;20.10;82.50;;;;;;5011955;28;20432;-79
2022/08/10 02:08:50;;;;;;;3.10;1.93;;;20.30;82.80;;;;;;4994368;28;20436;-78
2022/08/10 02:11:18;;;;;;;2.30;1.80;;;20.00;83.00;;;;;;5011989;28;20490;-78
2022/08/10 02:13:44;;;;;;;8.40;2.37;;;20.00;84.40;;;;;;4994322;28;20489;-78
2022/08/10 02:16:11;;;;;;;2.40;1.97;;;20.00;84.50;;;;;;5011999;28;20424;-78
2022/08/10 02:18:39;;;;;;;4.33;2.03;;;20.10;84.10;;;;;;4980146;28;20518;-79
2022/08/10 02:21:06;;;;;;;1.83;1.73;;;20.00;84.60;;;;;;4980732;28;20452;-79
2022/08/10 02:23:36;;;;;;;3.20;2.00;;;20.10;85.10;;;;;;5013430;28;20424;-80
2022/08/10 02:26:03;;;;;;;2.77;1.77;;;20.10;85.00;;;;;;5012976;28;20778;-80
2022/08/10 02:28:32;;;;;;;2.73;1.93;;;20.10;85.10;;;;;;5012710;28;20425;-80
2022/08/10 02:31:05;;;;;;;3.20;1.73;;;20.00;84.40;;;;;;4994730;28;20958;-81
2022/08/10 02:33:32;;;;;;;2.03;1.53;;;20.10;85.30;;;;;;4978771;28;20511;-80
2022/08/10 02:36:00;;;;;;;4.10;1.50;;;20.00;86.20;;;;;;5012588;28;20424;-80
2022/08/10 02:38:36;;;;;;;5.07;2.03;;;19.90;87.80;;;;;;4995185;28;20475;-80
2022/08/10 02:41:16;;;;;;;4.10;2.00;;;19.80;88.30;;;;;;4994784;28;20478;-81
2022/08/10 02:44:02;;;;;;;2.90;2.17;;;19.70;89.50;;;;;;4978478;28;20420;-80
2022/08/10 02:46:41;;;;;;;2.37;1.80;;;19.50;89.20;;;;;;5013078;28;20419;-80
2022/08/10 02:49:16;;;;;;;2.57;2.10;;;19.60;89.40;;;;;;5011131;28;20543;-76
2022/08/10 02:51:52;;;;;;;5.90;2.13;;;19.50;89.60;;;;;;5011465;28;20834;-80
2022/08/10 02:54:22;;;;;;;3.07;2.17;;;19.40;90.00;;;;;;4994836;28;20438;-79
2022/08/10 02:57:12;;;;;;;3.57;1.70;;;19.40;90.70;;;;;;4993848;28;20865;-79
2022/08/10 02:59:45;;;;;;;11.10;2.13;;;19.40;88.00;;;;;;5011254;28;20475;-78
2022/08/10 03:02:21;;;;;;;2.87;2.17;;;19.40;90.00;;;;;;4977773;28;20431;-78
2022/08/10 03:04:52;;;;;;;2.77;2.00;;;19.40;90.30;;;;;;4993746;28;20470;-78
2022/08/10 03:07:20;;;;;;;3.60;1.67;;;19.40;90.80;;;;;;4994150;28;21017;-78
2022/08/10 03:09:48;;;;;;;4.70;2.07;;;19.40;89.90;;;;;;5010777;28;21015;-78
2022/08/10 03:12:16;;;;;;;4.63;2.10;;;19.30;88.80;;;;;;4995540;28;20432;-79
2022/08/10 03:14:43;;;;;;;2.30;1.93;;;19.30;89.80;;;;;;5013244;28;20425;-79
2022/08/10 03:17:11;;;;;;;8.30;1.90;;;19.40;88.60;;;;;;5013015;28;20412;-79
2022/08/10 03:19:39;;;;;;;3.97;2.03;;;19.50;88.70;;;;;;5012559;28;20483;-79
2022/08/10 03:22:06;;;;;;;1.70;1.60;;;19.40;89.30;;;;;;4994521;28;20791;-79
2022/08/10 03:24:33;;;;;;;4.87;2.10;;;19.40;90.60;;;;;;4994598;28;20425;-79
2022/08/10 03:26:59;;;;;;;3.70;1.80;;;19.40;88.50;;;;;;4978116;28;20801;-79
2022/08/10 03:29:26;;;;;;;1.77;1.67;;;19.40;89.20;;;;;;4994011;28;20457;-79
2022/08/10 03:31:54;;;;;;;4.20;2.10;;;19.30;89.30;;;;;;4993575;28;20432;-78
2022/08/10 03:34:21;;;;;;;3.37;2.00;;;19.30;90.20;;;;;;5011488;28;20417;-79
2022/08/10 03:36:47;;;;;;;5.07;2.17;;;19.30;90.30;;;;;;4993912;28;20446;-78
2022/08/10 03:39:13;;;;;;;5.43;1.90;;;19.30;89.60;;;;;;5011650;28;20857;-79
2022/08/10 03:41:54;;;;;;;5.40;2.37;;;19.30;89.80;;;;;;4993766;28;20427;-79
2022/08/10 03:44:23;;;;;;;5.27;1.93;;;19.20;90.00;;;;;;5010966;28;20490;-78
2022/08/10 03:46:51;;;;;;;2.00;1.80;;;19.20;89.90;;;;;;4992726;28;20803;-78
2022/08/10 03:49:19;;;;;;;2.67;1.87;;;19.20;90.10;;;;;;5011354;28;20451;-78
2022/08/10 03:51:48;;;;;;;2.20;2.00;;;19.10;90.80;;;;;;5011688;28;20538;-79
2022/08/10 03:54:17;;;;;;;3.10;2.20;;;19.10;89.60;;;;;;5011848;28;20497;-78
2022/08/10 03:56:43;;;;;;;3.30;2.10;;;19.10;90.00;;;;;;4993972;28;20442;-79
2022/08/10 03:59:14;;;;;;;7.73;1.93;;;19.00;90.10;;;;;;4994118;28;20464;-79
2022/08/10 04:01:44;;;;;;;3.13;1.53;;;19.10;90.00;;;;;;5011977;28;20412;-79
2022/08/10 04:04:11;;;;;;;3.63;1.53;;;19.10;90.10;;;;;;4994372;28;20476;-79
2022/08/10 04:06:37;;;;;;;7.63;2.30;;;19.00;90.20;;;;;;5011407;28;20436;-79
2022/08/10 04:09:04;;;;;;;3.07;2.10;;;19.00;90.40;;;;;;4993872;28;20544;-78
2022/08/10 04:11:29;;;;;;;2.03;1.53;;;19.00;90.10;;;;;;5011977;28;20443;-79
2022/08/10 04:13:55;;;;;;;3.43;2.20;;;19.00;90.00;;;;;;5011384;28;20921;-78
2022/08/10 04:16:21;;;;;;;2.10;1.60;;;18.90;90.20;;;;;;5011498;28;20196;-78
2022/08/10 04:18:46;;;;;;;5.97;1.90;;;18.90;90.40;;;;;;4976982;28;20247;-78
2022/08/10 04:21:19;;;;;;;1.97;1.60;;;18.80;90.50;;;;;;4993330;28;20201;-79
2022/08/10 04:23:48;;;;;;;4.87;1.60;;;18.70;91.00;;;;;;4993506;28;20185;-79
2022/08/10 04:26:15;;;;;;;7.60;1.57;;;18.70;90.30;;;;;;5011049;28;20512;-78
2022/08/10 04:28:41;;;;;;;3.30;1.93;;;18.80;90.90;;;;;;4977144;28;20460;-79
2022/08/10 04:31:08;;;;;;;3.00;1.67;;;18.80;91.20;;;;;;4993326;28;20444;-79
2022/08/10 04:33:38;;;;;;;1.70;1.60;;;18.70;91.60;;;;;;5009893;28;20506;-78
2022/08/10 04:36:05;;;;;;;3.60;1.97;;;18.80;92.60;;;;;;5014426;28;20423;-79
2022/08/10 04:38:33;;;;;;;2.27;1.73;;;18.70;91.90;;;;;;5013088;28;21044;-76
2022/08/10 04:41:00;;;;;;;2.50;1.57;;;18.80;91.20;;;;;;5009963;28;20468;-78
2022/08/10 04:43:26;;;;;;;4.47;1.63;;;18.70;91.00;;;;;;4992460;28;20430;-78
2022/08/10 04:45:51;;;;;;;6.07;1.80;;;18.80;91.30;;;;;;5009447;28;20423;-78
2022/08/10 04:48:19;;;;;;;2.93;1.73;;;18.80;91.50;;;;;;4991956;28;20428;-78
2022/08/10 04:50:45;;;;;;;4.80;1.60;;;18.90;90.70;;;;;;4975910;28;20235;-78
2022/08/10 04:53:11;;;;;;;4.00;1.77;;;19.00;89.80;;;;;;4991887;28;20454;-78
2022/08/10 04:55:36;;;;;;;8.50;1.97;;;19.10;87.40;;;;;;4992085;28;20716;-78
2022/08/10 04:58:02;;;;;;;8.43;2.00;;;19.20;85.00;;;;;;4993723;28;20267;-78
2022/08/10 05:00:28;;;;;;;5.33;1.63;;;19.30;86.90;;;;;;5010242;28;20201;-78
2022/08/10 05:02:54;;;;;;;7.50;1.70;;;19.40;87.40;;;;;;5010241;28;20477;-78
2022/08/10 05:05:19;;;;;;;5.90;1.43;;;19.40;85.20;;;;;;4992179;28;20204;-78
2022/08/10 05:07:45;;;;;;;5.50;1.80;;;19.40;85.20;;;;;;5010307;28;20172;-78
2022/08/10 05:10:11;;;;;;;4.73;1.87;;;19.50;84.90;;;;;;4993194;28;20196;-78
2022/08/10 05:12:37;;;;;;;9.40;2.30;;;19.60;85.60;;;;;;4992744;28;20724;-78
2022/08/10 05:15:08;;;;;;;2.93;1.90;;;19.60;86.50;;;;;;5009828;28;20272;-78
2022/08/10 05:17:34;;;;;;;4.13;1.80;;;19.50;85.50;;;;;;5010358;28;20929;-78
2022/08/10 05:20:02;;;;;;;7.37;1.70;;;19.50;86.80;;;;;;5010035;28;20919;-78
2022/08/10 05:22:27;;;;;;;1.73;1.60;;;19.60;86.80;;;;;;5009865;28;20499;-78
2022/08/10 05:24:53;;;;;;;3.00;1.70;;;19.60;86.90;;;;;;4992387;28;20908;-79
2022/08/10 05:27:18;;;;;;;8.13;1.60;;;19.70;84.40;;;;;;5011746;28;20694;-79
2022/08/10 05:29:44;;;;;;;3.93;1.90;;;19.80;84.60;;;;;;4977579;28;20219;-79
2022/08/10 05:32:10;;;;;;;3.27;1.53;;;20.00;84.60;;;;;;4993303;28;20268;-79
2022/08/10 05:34:35;;;;;;;2.37;1.87;;;20.20;84.70;;;;;;4980376;28;20185;-79
2022/08/10 05:37:02;;;;;;;4.03;1.40;;;20.30;86.00;;;;;;4996845;28;20235;-79
2022/08/10 05:39:28;;;;;;;8.13;1.63;;;20.40;86.10;;;;;;4996682;28;20220;-79
2022/08/10 05:41:54;;;;;;;5.03;1.70;;;20.60;86.00;;;;;;4997341;28;20459;-79
2022/08/10 05:44:21;;;;;;;7.33;1.80;;;20.60;86.00;;;;;;4996911;28;20424;-78
2022/08/10 05:46:48;;;;;;;5.87;1.70;;;20.70;86.70;;;;;;4997084;28;20478;-78
2022/08/10 05:49:13;;;;;;;7.93;1.70;;;20.70;84.40;;;;;;4997192;28;20446;-79
2022/08/10 05:51:39;;;;;;;7.10;1.37;;;20.80;85.20;;;;;;4997239;28;20423;-79
2022/08/10 05:54:13;;;;;;;7.70;1.50;;;21.00;86.20;;;;;;4997573;28;20548;-78
2022/08/10 05:56:41;;;;;;;5.10;1.73;;;21.00;83.00;;;;;;5015184;28;20271;-78
2022/08/10 05:59:08;;;;;;;3.50;1.50;;;21.20;84.30;;;;;;4997118;28;20482;-79
2022/08/10 06:01:39;;;;;;;4.67;1.80;;;21.30;84.20;;;;;;5014215;28;20925;-78
2022/08/10 06:04:07;;;;;;;4.70;1.80;;;21.40;82.60;;;;;;4998523;28;20404;-79
2022/08/10 06:06:34;;;;;;;4.20;2.17;;;21.60;80.60;;;;;;5013558;28;20498;-79
2022/08/10 06:09:01;;;;;;;4.70;2.20;;;21.50;83.20;;;;;;4995760;28;20490;-79
2022/08/10 06:11:31;;;;;;;10.47;2.43;;;21.40;79.60;;;;;;4995138;28;20437;-79
2022/08/10 06:16:44;;;;;;;4.50;1.97;;;21.60;83.90;;;;;;5013914;28;20467;-79
2022/08/10 06:19:11;;;;;;;6.70;1.87;;;21.70;79.90;;;;;;5012678;28;20566;-78
2022/08/10 06:21:37;;;;;;;5.27;1.57;;;21.80;83.50;;;;;;4996220;28;20436;-79
2022/08/10 06:24:06;;;;;;;4.23;1.83;;;21.90;82.20;;;;;;4995340;28;20429;-79
2022/08/10 06:26:31;;;;;;;2.83;1.60;;;21.90;84.70;;;;;;5011818;28;20516;-79
2022/08/10 06:29:09;;;;;;;3.37;1.90;;;21.90;83.60;;;;;;5012138;28;20547;-79
2022/08/10 06:31:39;;;;;;;8.30;2.07;;;22.10;82.70;;;;;;4996661;28;20182;-78
2022/08/10 06:34:08;;;;;;;2.50;1.63;;;22.10;83.20;;;;;;4995480;28;20432;-79
2022/08/10 06:36:36;;;;;;;6.40;1.87;;;22.30;82.20;;;;;;4995325;28;20429;-76
2022/08/10 06:39:03;;;;;;;3.50;2.07;;;22.30;83.10;;;;;;4979353;28;20517;-79
2022/08/10 06:41:33;;;;;;;2.03;1.73;;;22.30;84.00;;;;;;4995834;28;20471;-79
2022/08/10 06:44:05;;;;;;;2.27;1.60;;;22.30;84.30;;;;;;4996454;28;20418;-79
2022/08/10 06:46:36;;;;;;;3.03;1.70;;;22.40;84.10;;;;;;5016451;28;20450;-80
2022/08/10 06:49:04;;;;;;;4.90;1.67;;;22.50;82.40;;;;;;5003926;28;20430;-79
2022/08/10 06:51:33;;;;;;;2.63;1.70;;;22.70;79.60;;;;;;5021501;28;20429;-79
2022/08/10 06:54:21;;;;;;;2.60;1.60;;;22.70;81.10;;;;;;4979911;28;20959;-79
2022/08/10 06:56:48;;;;;;;2.00;1.87;;;22.80;81.60;;;;;;5014636;28;20413;-79
2022/08/10 06:59:24;;;;;;;8.13;2.10;;;22.70;83.00;;;;;;4980733;28;20530;-79
2022/08/10 07:02:24;;;;;;;1.80;1.60;;;22.60;83.00;;;;;;5020030;28;20428;-79
2022/08/10 07:05:17;;;;;;;2.10;1.47;;;22.50;79.00;;;;;;4990259;28;20464;-81
2022/08/10 07:07:44;;;;;;;5.07;2.10;;;22.70;80.90;;;;;;5016443;28;20867;-79
2022/08/10 07:10:15;;;;;;;5.13;1.80;;;22.50;75.40;;;;;;5016784;28;20524;-79
2022/08/10 07:12:42;;;;;;;4.07;2.00;;;22.50;76.80;;;;;;4983359;28;20429;-79
2022/08/10 07:15:08;;;;;;;4.77;1.53;;;22.60;77.80;;;;;;5000773;28;20449;-80
2022/08/10 07:17:36;;;;;;;6.70;1.37;;;22.70;78.20;;;;;;4999528;28;20450;-79
2022/08/10 07:20:02;;;;;;;3.33;1.40;;;22.80;76.20;;;;;;4998169;28;20993;-79
2022/08/10 07:22:30;;;;;;;4.77;1.50;;;22.90;77.70;;;;;;4999579;28;20433;-79
2022/08/10 07:24:58;;;;;;;2.60;1.40;;;23.00;75.80;;;;;;4999546;28;20426;-79
2022/08/10 07:27:25;;;;;;;12.53;2.80;;;22.90;77.00;;;;;;4998195;28;20423;-79
2022/08/10 07:29:51;;;;;;;8.13;1.67;;;22.80;74.30;;;;;;5017572;28;20483;-80
2022/08/10 07:32:19;;;;;;;2.23;1.63;;;22.90;75.50;;;;;;5016544;28;20465;-80
2022/08/10 07:34:47;;;;;;;2.83;1.93;;;23.00;76.10;;;;;;4996763;28;20509;-79
2022/08/10 07:37:14;;;;;;;9.40;2.10;;;23.10;75.50;;;;;;5014004;28;20784;-79
2022/08/10 07:39:44;;;;;;;2.60;1.50;;;23.00;72.50;;;;;;5013359;28;20478;-80
2022/08/10 07:42:12;;;;;;;4.50;1.47;;;23.10;73.80;;;;;;5013412;28;20518;-79
2022/08/10 07:44:43;;;;;;;4.20;1.77;;;23.00;71.60;;;;;;4979320;28;20434;-79
2022/08/10 07:47:14;;;;;;;6.80;1.30;;;22.90;71.70;;;;;;4994381;28;20438;-79
2022/08/10 07:49:42;;;;;;;6.20;2.10;;;22.90;71.60;;;;;;5012804;28;20805;-79
2022/08/10 07:52:09;;;;;;;4.73;1.60;;;23.00;71.60;;;;;;5012460;28;20525;-78
2022/08/10 07:54:42;;;;;;;7.43;1.40;;;23.10;71.10;;;;;;4994644;28;20441;-78
2022/08/10 07:57:22;;;;;;;8.10;1.50;;;23.10;71.00;;;;;;5010999;28;20415;-79
2022/08/10 07:59:54;;;;;;;5.43;1.40;;;23.00;72.10;;;;;;5011982;28;20927;-78
2022/08/10 08:02:33;;;;;;;6.07;1.80;;;23.10;70.10;;;;;;4994418;28;20825;-78
2022/08/10 08:05:03;;;;;;;4.30;1.50;;;23.10;70.50;;;;;;5011080;28;20426;-79
2022/08/10 08:07:31;;;;;;;6.10;2.30;;;23.20;71.20;;;;;;5010609;28;20422;-78
2022/08/10 08:09:58;;;;;;;7.20;1.67;;;23.30;69.40;;;;;;4992524;28;20497;-78
2022/08/10 08:12:25;;;;;;;4.20;1.70;;;23.40;71.40;;;;;;4993036;28;20505;-79
2022/08/10 08:14:52;;;;;;;2.90;1.50;;;23.50;72.70;;;;;;5010368;28;20433;-79
2022/08/10 08:17:20;;;;;;;2.83;1.80;;;23.70;70.20;;;;;;4993820;28;20431;-79
2022/08/10 08:19:49;;;;;;;2.77;1.40;;;23.80;70.70;;;;;;4993197;28;21200;-78
2022/08/10 08:22:17;;;;;;;2.80;1.90;;;24.00;70.10;;;;;;4992463;28;20536;-79
2022/08/10 08:24:43;;;;;;;1.50;1.30;;;24.00;68.60;;;;;;5010025;28;20514;-78
2022/08/10 08:27:13;;;;;;;6.20;2.00;;;24.00;68.30;;;;;;4992088;28;20456;-78
2022/08/10 08:29:41;;;;;;;2.47;1.20;;;24.10;68.50;;;;;;4991871;28;20997;-78
2022/08/10 08:32:08;;;;;;;7.43;1.87;;;24.30;68.10;;;;;;4992114;28;20948;-78
2022/08/10 08:34:38;;;;;;;6.87;1.57;;;24.20;64.80;;;;;;5009463;28;20426;-78
2022/08/10 08:37:06;;;;;;;10.33;1.57;;;24.20;65.20;;;;;;5009272;28;20897;-79
2022/08/10 08:39:32;;;;;;;6.20;1.43;;;24.20;64.90;;;;;;4992050;28;20488;-79
2022/08/10 08:42:06;;;;;;;2.50;1.87;;;24.30;65.20;;;;;;4994738;28;20426;-80
2022/08/10 08:44:54;;;;;;;3.83;1.40;;;24.40;65.00;;;;;;4993730;28;20217;-79
2022/08/10 08:47:39;;;;;;;5.90;1.57;;;24.70;65.10;;;;;;5012057;28;20518;-79
2022/08/10 08:50:36;;;;;;;4.20;1.63;;;24.90;64.60;;;;;;4993842;28;20451;-79
2022/08/10 08:53:32;;;;;;;3.97;1.37;;;25.10;63.20;;;;;;4994279;28;20428;-79
2022/08/10 08:56:01;;;;;;;2.70;1.37;;;25.30;62.40;;;;;;4993643;28;20412;-81
2022/08/10 08:59:10;;;;;;;2.53;1.00;;;25.20;61.20;;;;;;5012233;28;20461;-80
2022/08/10 09:01:42;;;;;;;3.63;1.47;;;25.40;60.80;;;;;;4937713;29;20426;-80
2022/08/10 09:04:26;;;;;;;2.20;1.40;;;25.50;60.30;;;;;;4988278;28;20416;-80
2022/08/10 09:07:17;;;;;;;2.87;1.40;;;25.60;59.00;;;;;;4994659;28;20984;-77
2022/08/10 09:09:51;;;;;;;4.40;1.37;;;25.80;58.50;;;;;;4996842;28;21032;-77
2022/08/10 09:12:54;;;;;;;2.30;1.63;;;26.00;57.30;;;;;;5016030;28;20426;-79
2022/08/10 09:15:36;;;;;;;4.83;1.47;;;26.20;56.90;;;;;;4999433;28;20478;-79
2022/08/10 09:18:04;;;;;;;3.90;1.30;;;26.30;55.30;;;;;;4999700;28;20458;-79
2022/08/10 09:20:52;;;;;;;2.60;1.20;;;26.50;54.90;;;;;;5018324;28;20443;-79
2022/08/10 09:23:49;;;;;;;1.40;1.20;;;26.80;54.80;;;;;;5018438;28;20434;-78
2022/08/10 09:26:20;;;;;;;2.10;1.40;;;27.10;53.90;;;;;;5000665;28;20439;-79
2022/08/10 09:28:51;;;;;;;7.03;1.93;;;27.00;52.90;;;;;;5000743;28;20519;-79
2022/08/10 09:31:21;;;;;;;1.87;1.20;;;27.00;52.60;;;;;;5018017;28;20427;-79
2022/08/10 09:34:21;;;;;;;1.60;1.10;;;27.50;54.00;;;;;;4999821;28;20430;-80
2022/08/10 09:37:08;;;;;;;1.83;1.20;;;27.90;52.50;;;;;;4999809;28;20466;-79
2022/08/10 09:39:53;;;;;;;3.43;1.30;;;28.40;52.30;;;;;;4999242;28;20586;-79
2022/08/10 09:42:38;;;;;;;3.60;1.20;;;28.80;52.60;;;;;;5018847;28;20404;-78
2022/08/10 09:45:08;;;;;;;5.63;1.60;;;28.70;49.20;;;;;;5012324;28;20503;-78
2022/08/10 09:48:03;;;;;;;2.07;1.10;;;28.80;50.40;;;;;;5012011;28;20482;-77
2022/08/10 09:50:49;;;;;;;4.53;1.40;;;29.00;49.90;;;;;;4982378;28;20454;-78
2022/08/10 09:53:47;;;;;;;4.10;1.23;;;29.40;50.70;;;;;;4996016;28;20503;-78
2022/08/10 09:56:48;;;;;;;5.40;1.13;;;29.40;48.50;;;;;;5012352;28;20454;-78
2022/08/10 09:59:39;;;;;;;2.33;1.43;;;29.60;47.90;;;;;;4962919;28;20497;-78
2022/08/10 10:02:28;;;;;;;5.33;1.20;;;29.70;47.20;;;;;;5011762;28;20925;-78
2022/08/10 10:04:57;;;;;;;1.20;1.10;;;29.90;47.40;;;;;;5011985;28;20754;-78
2022/08/10 10:07:26;;;;;;;3.17;1.30;;;30.30;46.10;;;;;;5012355;28;20443;-78
2022/08/10 10:10:09;;;;;;;4.27;1.13;;;30.10;46.10;;;;;;5012784;28;21207;-79
2022/08/10 10:12:55;;;;;;;4.00;1.80;;;30.30;46.00;;;;;;5020086;28;20408;-79
2022/08/10 10:15:47;;;;;;;2.57;1.30;;;30.50;45.70;;;;;;5019095;28;20943;-79
2022/08/10 10:18:35;;;;;;;4.20;0.90;;;30.80;45.10;;;;;;4999203;28;20432;-79
2022/08/10 10:21:07;;;;;;;2.43;1.20;;;30.80;44.70;;;;;;5017717;28;20442;-79
2022/08/10 10:23:57;;;;;;;2.80;1.40;;;31.00;43.30;;;;;;5019818;28;20427;-79
2022/08/10 10:26:51;;;;;;;3.40;1.70;;;31.10;42.70;;;;;;5019974;28;20421;-79
2022/08/10 10:29:50;;;;;;;4.13;1.10;;;31.00;42.60;;;;;;5000766;28;20486;-79
2022/08/10 10:32:46;;;;;;;1.43;1.07;;;31.20;40.80;;;;;;5015925;28;20424;-79
2022/08/10 10:35:20;;;;;;;3.50;1.13;;;31.20;40.70;;;;;;5016016;28;21108;-79
2022/08/10 10:37:50;;;;;;;7.03;1.20;;;31.10;39.80;;;;;;5014517;28;20419;-79
2022/08/10 10:40:18;;;;;;;6.47;1.00;;;30.80;38.10;;;;;;5014116;28;20489;-78
2022/08/10 10:42:52;;;;;;;1.53;1.30;;;30.50;38.80;;;;;;5014103;28;20423;-79
2022/08/10 10:45:29;;;;;;;1.97;1.20;;;30.80;40.00;;;;;;5014046;28;20784;-79
2022/08/10 10:48:30;;;;;;;1.20;1.10;;;31.10;39.60;;;;;;4994968;28;20424;-79
2022/08/10 10:51:36;;;;;;;1.30;1.03;;;31.30;39.10;;;;;;5000785;28;20448;-78
2022/08/10 10:54:09;;;;;;;4.47;1.23;;;31.20;38.90;;;;;;5014163;28;20415;-80
2022/08/10 10:56:56;;;;;;;2.60;1.33;;;31.10;38.40;;;;;;5014924;28;20507;-78
2022/08/10 10:59:34;;;;;;;5.93;1.20;;;31.20;39.50;;;;;;4996952;28;20481;-79
2022/08/10 11:02:20;;;;;;;4.30;1.30;;;31.00;39.50;;;;;;4996074;28;20458;-79
2022/08/10 11:05:23;;;;;;;3.43;1.07;;;30.90;39.60;;;;;;5015616;28;20964;-78
2022/08/10 11:08:20;;;;;;;3.13;1.30;;;30.90;38.60;;;;;;5013061;28;20531;-78
2022/08/10 11:10:54;;;;;;;1.00;0.90;;;30.60;38.70;;;;;;4993461;28;20455;-79
2022/08/10 11:13:27;;;;;;;1.10;0.80;;;30.80;38.50;;;;;;4996323;28;21106;-79
2022/08/10 11:16:18;;;;;;;1.40;1.23;;;30.90;37.40;;;;;;4996920;28;20434;-79
2022/08/10 11:18:58;;;;;;;2.50;1.23;;;31.10;38.50;;;;;;4990017;28;20479;-79
2022/08/10 11:21:49;;;;;;;2.10;1.30;;;31.40;38.50;;;;;;4996972;28;20538;-78
2022/08/10 11:24:31;;;;;;;4.63;1.80;;;31.40;38.10;;;;;;4999524;28;20416;-78
2022/08/10 11:27:47;;;;;;;4.50;1.10;;;31.30;38.50;;;;;;5016108;28;20411;-78
2022/08/10 11:30:21;;;;;;;1.77;1.23;;;31.20;38.60;;;;;;4996767;28;20456;-79
2022/08/10 11:33:18;;;;;;;2.03;1.13;;;31.30;39.10;;;;;;5019250;28;20423;-79
2022/08/10 11:35:52;;;;;;;1.53;1.33;;;31.30;37.70;;;;;;5001350;28;20439;-78
2022/08/10 11:38:56;;;;;;;1.40;1.20;;;31.60;37.50;;;;;;5018229;28;20461;-79
2022/08/10 11:41:42;;;;;;;2.93;0.90;;;31.70;37.00;;;;;;4939727;29;20427;-77
2022/08/10 11:44:20;;;;;;;9.20;1.93;;;31.60;37.50;;;;;;4952953;29;20937;-78
2022/08/10 11:47:04;;;;;;;12.17;1.50;;;31.70;37.10;;;;;;4978399;28;20438;-78
2022/08/10 11:49:36;;;;;;;3.77;1.73;;;31.80;36.70;;;;;;5013669;28;20435;-78
2022/08/10 11:52:09;;;;;;;3.80;1.43;;;32.10;36.40;;;;;;4994958;28;20543;-78
2022/08/10 11:55:05;;;;;;;3.27;1.40;;;31.90;35.70;;;;;;4992477;28;20444;-77
2022/08/10 11:57:31;;;;;;;2.47;1.00;;;31.60;35.00;;;;;;4987873;28;20444;-77
2022/08/10 11:59:57;;;;;;;2.20;1.20;;;31.30;36.00;;;;;;5009111;28;20478;-76
2022/08/10 12:02:28;;;;;;;4.03;1.53;;;30.30;35.50;;;;;;4974660;28;20424;-76
2022/08/10 12:05:06;;;;;;;4.67;1.10;;;30.70;36.90;;;;;;5008398;28;20189;-76
2022/08/10 12:07:33;;;;;;;2.20;1.30;;;31.00;38.00;;;;;;5008713;28;20440;-77
2022/08/10 12:09:59;;;;;;;6.73;1.17;;;31.30;36.20;;;;;;4990836;28;20444;-77
2022/08/10 12:12:29;;;;;;;2.50;1.00;;;31.50;36.20;;;;;;5008852;28;20420;-76
2022/08/10 12:15:09;;;;;;;6.80;1.30;;;31.10;36.20;;;;;;4993292;28;20427;-78
2022/08/10 12:17:43;;;;;;;5.93;1.40;;;31.20;36.40;;;;;;4992860;28;20930;-77
2022/08/10 12:20:21;;;;;;;2.13;1.07;;;31.00;35.90;;;;;;5009953;28;20480;-78
2022/08/10 12:23:14;;;;;;;1.87;1.33;;;31.20;36.90;;;;;;5009901;28;20416;-77
2022/08/10 12:25:58;;;;;;;2.60;1.47;;;31.50;36.00;;;;;;4986391;28;20830;-78
2022/08/10 12:28:39;;;;;;;2.97;1.33;;;31.50;35.50;;;;;;4999061;28;20490;-78
2022/08/10 12:31:09;;;;;;;3.40;1.70;;;31.60;36.60;;;;;;4997836;28;20543;-77
2022/08/10 12:33:49;;;;;;;6.10;1.43;;;31.60;36.70;;;;;;5015473;28;20429;-78
2022/08/10 12:36:22;;;;;;;2.30;1.27;;;31.70;37.00;;;;;;5015677;28;20428;-78
2022/08/10 12:38:55;;;;;;;4.20;1.53;;;31.80;37.30;;;;;;5017181;28;20498;-78
2022/08/10 12:41:24;;;;;;;3.87;1.13;;;32.10;35.90;;;;;;5016804;28;20804;-78
2022/08/10 12:44:00;;;;;;;6.60;1.93;;;31.90;35.90;;;;;;5017771;28;20493;-78
2022/08/10 12:46:47;;;;;;;7.60;1.67;;;31.80;36.00;;;;;;5017789;28;20420;-78
2022/08/10 12:49:29;;;;;;;2.70;1.17;;;31.70;36.20;;;;;;5015570;28;20423;-77
2022/08/10 12:52:15;;;;;;;3.00;1.00;;;31.60;35.50;;;;;;5017868;28;20505;-78
2022/08/10 12:54:43;;;;;;;2.63;1.37;;;31.70;36.30;;;;;;5015866;28;20432;-77
2022/08/10 12:57:15;;;;;;;1.87;1.30;;;31.50;36.20;;;;;;5016518;28;20493;-78
2022/08/10 12:59:50;;;;;;;2.23;1.20;;;31.80;36.90;;;;;;5015305;28;20479;-78
2022/08/10 13:02:25;;;;;;;3.23;1.13;;;31.50;34.70;;;;;;5015388;28;20422;-78
2022/08/10 13:04:55;;;;;;;4.73;1.60;;;31.90;36.00;;;;;;5017444;28;20793;-78
2022/08/10 13:07:29;;;;;;;3.10;1.30;;;31.60;35.30;;;;;;5017561;28;20531;-78
2022/08/10 13:10:01;;;;;;;2.47;1.40;;;31.80;36.00;;;;;;5000724;28;20447;-79
2022/08/10 13:12:31;;;;;;;4.00;1.43;;;31.90;35.60;;;;;;5000738;28;20443;-78
2022/08/10 13:15:04;;;;;;;2.07;1.17;;;31.80;35.50;;;;;;5000607;28;20444;-78
2022/08/10 13:17:32;;;;;;;1.90;1.20;;;31.80;36.20;;;;;;4998939;28;20424;-78
2022/08/10 13:20:04;;;;;;;4.40;1.83;;;31.50;35.70;;;;;;4999128;28;21025;-78